createdAt,value
2023-05-03T00:01:55.102Z,75.70
2023-05-03T00:08:37.399Z,75.40
2023-05-03T00:15:19.651Z,74.95
2023-05-03T00:22:01.963Z,74.37
2023-05-03T00:28:44.254Z,74.31
2023-05-03T00:35:28.067Z,75.03
2023-05-03T00:42:10.543Z,75.73
2023-05-03T00:48:53.050Z,76.37
2023-05-03T00:55:36.472Z,76.64
2023-05-03T01:02:18.763Z,77.42
2023-05-03T01:09:23.142Z,77.58
2023-05-03T01:16:27.148Z,78.40
2023-05-03T01:23:48.211Z,79.15
2023-05-03T01:30:32.947Z,79.43
2023-05-03T01:37:15.147Z,79.51
2023-05-03T01:43:58.493Z,79.63
2023-05-03T01:50:40.721Z,79.85
2023-05-03T01:57:23.115Z,79.89
2023-05-03T02:04:05.405Z,80.23
2023-05-03T02:10:47.633Z,80.85
2023-05-03T02:17:31.932Z,81.17
2023-05-03T02:24:14.109Z,82.23
2023-05-03T02:30:57.488Z,83.60
2023-05-03T02:37:39.978Z,83.81
2023-05-03T02:44:26.483Z,83.81
2023-05-03T02:51:08.779Z,83.75
2023-05-03T02:57:51.102Z,83.29
2023-05-03T03:04:35.412Z,83.28
2023-05-03T03:11:18.185Z,82.90
2023-05-03T03:18:01.005Z,82.90
2023-05-03T03:24:43.718Z,82.72
2023-05-03T03:31:26.181Z,82.02
2023-05-03T03:38:11.225Z,81.87
2023-05-03T03:45:00.769Z,82.84
2023-05-03T03:51:43.028Z,83.37
2023-05-03T03:58:25.381Z,85.23
2023-05-03T04:05:08.841Z,86.04
2023-05-03T04:11:51.621Z,87.13
2023-05-03T04:18:34.958Z,87.57
2023-05-03T04:25:18.958Z,88.22
2023-05-03T04:32:09.909Z,88.18
2023-05-03T04:38:53.101Z,88.67
2023-05-03T04:45:36.117Z,88.81
2023-05-03T04:52:18.688Z,88.34
2023-05-03T04:59:01.679Z,88.32
2023-05-03T05:05:43.960Z,87.91
2023-05-03T05:12:27.897Z,86.67
2023-05-03T05:19:10.213Z,85.54
2023-05-03T05:25:54.033Z,84.15
2023-05-03T05:32:36.558Z,82.83
2023-05-03T05:39:19.332Z,81.95
2023-05-03T05:46:01.721Z,80.68
2023-05-03T05:52:44.795Z,78.86
2023-05-03T05:59:31.453Z,78.06
2023-05-03T06:06:15.044Z,76.78
2023-05-03T06:12:57.919Z,73.87
2023-05-03T06:19:43.785Z,71.42
2023-05-03T06:26:27.304Z,69.77
2023-05-03T06:33:14.749Z,67.27
2023-05-03T06:39:59.129Z,67.95
2023-05-03T06:46:41.769Z,65.35
2023-05-03T06:53:24.253Z,64.92
2023-05-03T07:00:07.464Z,63.26
2023-05-03T07:13:37.487Z,59.67
2023-05-03T07:20:19.916Z,56.08
2023-05-03T07:27:02.338Z,54.53
2023-05-03T07:33:44.669Z,52.04
2023-05-03T07:40:28.791Z,49.38
2023-05-03T07:47:11.003Z,48.35
2023-05-03T07:53:53.289Z,44.09
2023-05-03T08:00:35.767Z,44.51
2023-05-03T08:07:17.956Z,43.38
2023-05-03T08:14:00.263Z,41.72
2023-05-03T08:20:42.453Z,40.55
2023-05-03T08:27:26.508Z,40.68
2023-05-03T08:34:10.745Z,40.10
2023-05-03T08:40:58.115Z,40.50
2023-05-03T08:47:44.966Z,39.43
2023-05-03T08:54:27.737Z,40.30
2023-05-03T09:01:10.263Z,37.77
2023-05-03T09:08:12.590Z,36.53
2023-05-03T09:14:54.907Z,35.65
2023-05-03T09:21:37.885Z,35.50
2023-05-03T09:28:21.276Z,34.18
2023-05-03T09:35:10.666Z,34.19
2023-05-03T09:41:54.052Z,33.90
2023-05-03T09:48:38.156Z,32.72
2023-05-03T09:55:22.126Z,33.57
2023-05-03T10:02:07.760Z,34.22
2023-05-03T10:09:02.061Z,33.74
2023-05-03T10:15:45.216Z,34.21
2023-05-03T10:22:27.456Z,34.31
2023-05-03T10:29:35.160Z,35.34
2023-05-03T10:36:17.374Z,34.05
2023-05-03T10:43:01.016Z,34.54
2023-05-03T10:49:43.280Z,34.67
2023-05-03T10:56:25.420Z,33.71
2023-05-03T11:03:54.714Z,32.71
2023-05-03T11:10:37.233Z,32.09
2023-05-03T11:17:19.484Z,32.43
2023-05-03T11:24:02.471Z,32.51
2023-05-03T11:38:16.591Z,34.76
2023-05-03T11:45:00.373Z,33.46
2023-05-03T11:51:46.485Z,33.94
2023-05-03T11:58:30.094Z,34.77
2023-05-03T12:05:13.074Z,35.48
2023-05-03T12:11:58.255Z,33.71
2023-05-03T12:18:56.157Z,33.90
2023-05-03T12:25:40.568Z,33.97
2023-05-03T12:32:26.303Z,33.97
2023-05-03T12:39:10.203Z,34.69
2023-05-03T12:46:08.663Z,35.76
2023-05-03T12:52:55.419Z,33.58
2023-05-03T12:59:40.989Z,32.53
2023-05-03T13:06:25.184Z,32.64
2023-05-03T13:13:07.707Z,32.59
2023-05-03T13:19:51.463Z,33.61
2023-05-03T13:26:33.849Z,34.47
2023-05-03T13:33:17.875Z,33.70
2023-05-03T13:40:00.045Z,34.02
2023-05-03T13:46:43.549Z,34.50
2023-05-03T13:53:26.866Z,34.41
2023-05-03T14:00:10.245Z,33.96
2023-05-03T14:06:52.490Z,34.06
2023-05-03T14:13:47.618Z,33.24
2023-05-03T14:20:37.936Z,33.66
2023-05-03T14:27:21.712Z,33.46
2023-05-03T14:34:03.757Z,33.36
2023-05-03T14:40:46.282Z,33.41
2023-05-03T14:47:28.740Z,33.38
2023-05-03T14:54:11.881Z,33.81
2023-05-03T15:00:54.129Z,34.76
2023-05-03T15:07:36.457Z,35.62
2023-05-03T15:14:19.570Z,34.80
2023-05-03T15:21:03.414Z,34.97
2023-05-03T15:27:48.785Z,34.20
2023-05-03T15:34:35.393Z,34.19
2023-05-03T15:41:17.789Z,33.92
2023-05-03T15:48:00.678Z,33.95
2023-05-03T15:54:43.165Z,34.04
2023-05-03T16:01:25.650Z,34.34
2023-05-03T16:08:08.363Z,34.78
2023-05-03T16:14:50.671Z,35.00
2023-05-03T16:21:33.176Z,35.10
2023-05-03T16:28:16.249Z,35.55
2023-05-03T16:34:58.538Z,36.17
2023-05-03T16:41:41.724Z,37.33
2023-05-03T16:48:24.152Z,38.19
2023-05-03T16:55:09.921Z,39.53
2023-05-03T17:01:52.232Z,41.15
2023-05-03T17:08:34.601Z,42.53
2023-05-03T17:15:17.317Z,43.44
2023-05-03T17:21:59.880Z,44.20
2023-05-03T17:28:44.023Z,44.82
2023-05-03T17:35:26.471Z,45.62
2023-05-03T17:42:09.328Z,46.60
2023-05-03T17:48:52.196Z,47.73
2023-05-03T17:55:38.118Z,48.73
2023-05-03T18:02:21.684Z,49.96
2023-05-03T18:09:04.384Z,50.55
2023-05-03T18:15:46.674Z,51.40
2023-05-03T18:22:28.958Z,52.63
2023-05-03T18:29:11.597Z,52.95
2023-05-03T18:35:54.257Z,53.43
2023-05-03T18:42:36.703Z,54.10
2023-05-03T18:49:19.087Z,54.80
2023-05-03T18:56:02.466Z,55.81
2023-05-03T19:02:45.144Z,56.71
2023-05-03T19:09:27.873Z,57.32
2023-05-03T19:16:10.236Z,58.55
2023-05-03T19:22:52.403Z,59.41
2023-05-03T19:29:34.511Z,60.40
2023-05-03T19:36:17.737Z,60.85
2023-05-03T19:42:59.958Z,61.33
2023-05-03T19:49:43.498Z,62.18
2023-05-03T19:56:25.752Z,62.86
2023-05-03T20:03:07.983Z,63.46
2023-05-03T20:09:50.300Z,64.16
2023-05-03T20:16:37.431Z,65.00
2023-05-03T20:23:19.702Z,65.48
2023-05-03T20:30:04.210Z,66.08
2023-05-03T20:36:46.513Z,66.99
2023-05-03T20:43:28.714Z,67.62
2023-05-03T20:50:11.896Z,67.84
2023-05-03T20:56:53.994Z,68.32
2023-05-03T21:03:36.335Z,69.02
2023-05-03T21:10:18.748Z,69.07
2023-05-03T21:17:01.481Z,69.65
2023-05-03T21:23:45.022Z,69.61
2023-05-03T21:30:28.156Z,69.97
2023-05-03T21:37:10.768Z,70.61
2023-05-03T21:43:52.900Z,71.06
2023-05-03T21:50:40.975Z,71.60
2023-05-03T21:57:23.107Z,71.86
2023-05-03T22:04:05.720Z,72.71
2023-05-03T22:10:48.911Z,73.18
2023-05-03T22:17:34.183Z,73.95
2023-05-03T22:24:16.409Z,75.04
2023-05-03T22:30:58.822Z,75.27
2023-05-03T22:37:41.732Z,75.82
2023-05-03T22:44:24.014Z,76.24
2023-05-03T22:51:06.523Z,76.32
2023-05-03T22:57:48.810Z,75.76
2023-05-03T23:04:31.225Z,76.44
2023-05-03T23:11:13.383Z,76.14
2023-05-03T23:17:56.112Z,77.54
2023-05-03T23:24:39.601Z,77.93
2023-05-03T23:31:21.944Z,78.09
2023-05-03T23:38:04.572Z,78.51
2023-05-03T23:44:54.806Z,78.43
2023-05-03T23:51:37.882Z,78.82
2023-05-03T23:58:20.105Z,78.21
